TimeCET,TemperatureF,Dew PointF,Humidity,Sea Level PressureIn,VisibilityMPH,Wind Direction,Wind SpeedMPH,Gust SpeedMPH,PrecipitationIn,Events,Conditions,WindDirDegrees,DateUTC
12:15 AM,32.0,14.0,48,30.39,-9999.0,NNE,15.7,26.8,N/A,,Clear,30,2012-12-28 23:15:00
12:45 AM,32.0,14.0,48,30.39,-9999.0,NNE,17.9,-,N/A,,Clear,30,2012-12-28 23:45:00
1:15 AM,32.0,14.0,48,30.39,-9999.0,NNE,15.7,-,N/A,,Clear,30,2012-12-29 00:15:00
1:45 AM,30.2,15.8,55,30.42,-9999.0,NNE,17.9,-,N/A,,Clear,30,2012-12-29 00:45:00
2:15 AM,30.2,15.8,55,30.42,-9999.0,NNE,13.4,-,N/A,,Clear,20,2012-12-29 01:15:00
2:45 AM,28.4,17.6,64,30.42,-9999.0,NNE,11.2,-,N/A,,Clear,20,2012-12-29 01:45:00
3:15 AM,28.4,17.6,64,30.42,-9999.0,NNE,11.2,-,N/A,,Clear,20,2012-12-29 02:15:00
3:45 AM,28.4,15.8,59,30.42,-9999.0,NNE,11.2,-,N/A,,Clear,20,2012-12-29 02:45:00
4:15 AM,28.4,17.6,64,30.42,-9999.0,North,11.2,-,N/A,,Clear,10,2012-12-29 03:15:00
4:45 AM,28.4,15.8,59,30.42,-9999.0,NNE,8.9,-,N/A,,Clear,20,2012-12-29 03:45:00
5:15 AM,26.6,15.8,64,30.42,-9999.0,North,6.7,-,N/A,,Clear,10,2012-12-29 04:15:00
5:45 AM,-9999,-9999,N/A,-9999,6.2,ENE,4.5,-,N/A,,Clear,60,2012-12-29 04:45:00
6:15 AM,23.0,15.8,74,30.42,-9999.0,North,4.5,-,N/A,,Clear,360,2012-12-29 05:15:00
6:45 AM,24.8,15.8,69,30.45,-9999.0,North,6.7,-,N/A,,Clear,10,2012-12-29 05:45:00
7:15 AM,23.0,15.8,74,30.45,-9999.0,North,4.5,-,N/A,,Clear,360,2012-12-29 06:15:00
7:45 AM,23.0,15.8,74,30.45,-9999.0,North,4.5,-,N/A,,Clear,360,2012-12-29 06:45:00
8:15 AM,24.8,15.8,69,30.45,-9999.0,NNE,6.7,-,N/A,,Clear,30,2012-12-29 07:15:00
8:45 AM,-9999,-9999,N/A,-9999,6.2,NNE,6.7,-,N/A,,Clear,30,2012-12-29 07:45:00
9:15 AM,28.4,17.6,64,30.48,-9999.0,North,4.5,-,N/A,,Clear,360,2012-12-29 08:15:00
9:45 AM,32.0,15.8,51,30.45,-9999.0,NNE,6.7,-,N/A,,Clear,30,2012-12-29 08:45:00
10:15 AM,33.8,15.8,48,30.45,-9999.0,NE,8.9,-,N/A,,Clear,50,2012-12-29 09:15:00
10:45 AM,33.8,15.8,48,30.45,-9999.0,ENE,8.9,-,N/A,,Clear,70,2012-12-29 09:45:00
11:15 AM,35.6,17.6,48,30.45,-9999.0,East,8.9,-,N/A,,Clear,80,2012-12-29 10:15:00
11:45 AM,-9999,-9999,N/A,-9999,6.2,ENE,8.9,-,N/A,,Clear,70,2012-12-29 10:45:00
12:15 PM,35.6,17.6,48,30.45,-9999.0,NE,6.7,-,N/A,,Clear,50,2012-12-29 11:15:00
12:45 PM,35.6,19.4,52,30.42,-9999.0,ENE,6.7,-,N/A,,Clear,60,2012-12-29 11:45:00
1:15 PM,35.6,19.4,52,30.42,-9999.0,East,2.2,-,N/A,,Clear,80,2012-12-29 12:15:00
1:45 PM,37.4,21.2,52,30.42,-9999.0,East,4.5,-,N/A,,Clear,80,2012-12-29 12:45:00
2:15 PM,35.6,21.2,56,30.42,-9999.0,ESE,6.7,-,N/A,,Clear,110,2012-12-29 13:15:00
2:45 PM,-9999,-9999,N/A,-9999,3.1,SE,4.5,-,N/A,,Clear,130,2012-12-29 13:45:00
3:15 PM,33.8,23.0,65,30.42,-9999.0,ESE,4.5,-,N/A,,Clear,120,2012-12-29 14:15:00
3:45 PM,33.8,24.8,70,30.42,-9999.0,ESE,4.5,-,N/A,,Clear,120,2012-12-29 14:45:00
4:15 PM,32.0,24.8,75,30.42,-9999.0,Variable,2.2,-,N/A,,Clear,0,2012-12-29 15:15:00
4:45 PM,32.0,24.8,75,30.42,-9999.0,South,2.2,-,N/A,,Clear,170,2012-12-29 15:45:00
5:15 PM,30.2,24.8,80,30.42,-9999.0,SSE,4.5,-,N/A,,Clear,160,2012-12-29 16:15:00
5:45 PM,-9999,-9999,N/A,-9999,3.1,SSE,4.5,-,N/A,,Clear,150,2012-12-29 16:45:00
6:15 PM,30.2,24.8,80,30.42,-9999.0,SSE,4.5,-,N/A,,Clear,150,2012-12-29 17:15:00
6:45 PM,28.4,23.0,80,30.42,-9999.0,SSE,4.5,-,N/A,,Clear,150,2012-12-29 17:45:00
7:15 PM,28.4,24.8,86,30.42,-9999.0,SSE,4.5,-,N/A,,Clear,160,2012-12-29 18:15:00
7:45 PM,28.4,24.8,86,30.42,-9999.0,SSE,4.5,-,N/A,,Clear,160,2012-12-29 18:45:00
8:15 PM,28.4,24.8,86,30.42,-9999.0,South,2.2,-,N/A,,Clear,180,2012-12-29 19:15:00
8:45 PM,-9999,-9999,N/A,-9999,3.1,SSE,4.5,-,N/A,,Overcast,150,2012-12-29 19:45:00
9:15 PM,28.4,24.8,86,30.42,-9999.0,Calm,Calm,-,N/A,,Clear,0,2012-12-29 20:15:00
9:45 PM,26.6,23.0,86,30.42,-9999.0,South,2.2,-,N/A,,Clear,180,2012-12-29 20:45:00
10:15 PM,26.6,24.8,93,30.42,-9999.0,SSE,4.5,-,N/A,,Clear,160,2012-12-29 21:15:00
10:45 PM,26.6,23.0,86,30.42,-9999.0,SSE,4.5,-,N/A,,Clear,160,2012-12-29 21:45:00
11:15 PM,26.6,24.8,93,30.42,-9999.0,South,4.5,-,N/A,,Clear,170,2012-12-29 22:15:00
11:45 PM,-9999,-9999,N/A,-9999,1.9,North,-9999.0,-,N/A,Fog,Fog,0,2012-12-29 22:45:00